createdAt,value
2022-09-07T00:00:09.404Z,18.28
2022-09-07T00:00:41.500Z,18.27
2022-09-07T00:01:13.120Z,18.23
2022-09-07T00:01:45.055Z,18.16
2022-09-07T00:02:16.604Z,18.15
2022-09-07T00:02:48.170Z,18.19
2022-09-07T00:03:20.344Z,18.19
2022-09-07T00:03:56.051Z,18.18
2022-09-07T00:04:28.564Z,18.23
2022-09-07T00:05:00.402Z,18.21
2022-09-07T00:05:32.303Z,18.19
2022-09-07T00:06:11.397Z,18.14
2022-09-07T00:06:42.946Z,18.14
2022-09-07T00:07:14.668Z,18.14
2022-09-07T00:07:46.208Z,18.13
2022-09-07T00:08:20.265Z,18.13
2022-09-07T00:08:51.907Z,18.11
2022-09-07T00:09:23.425Z,18.10
2022-09-07T00:09:55.031Z,18.09
2022-09-07T00:10:26.636Z,18.11
2022-09-07T00:11:00.687Z,18.15
2022-09-07T00:11:32.237Z,18.23
2022-09-07T00:12:04.040Z,18.28
2022-09-07T00:12:35.705Z,18.32
2022-09-07T00:13:07.939Z,18.33
2022-09-07T00:13:40.990Z,18.30
2022-09-07T00:14:12.927Z,18.28
2022-09-07T00:14:44.652Z,18.34
2022-09-07T00:15:16.280Z,18.34
2022-09-07T00:15:47.896Z,18.23
2022-09-07T00:16:23.413Z,18.28
2022-09-07T00:16:55.059Z,18.29
2022-09-07T00:17:26.714Z,18.27
2022-09-07T00:17:59.352Z,18.27
2022-09-07T00:18:31.645Z,18.22
2022-09-07T00:19:04.659Z,18.19
2022-09-07T00:19:36.384Z,18.16
2022-09-07T00:20:09.330Z,18.20
2022-09-07T00:20:40.868Z,18.24
2022-09-07T00:21:12.908Z,18.28
2022-09-07T00:21:45.344Z,18.31
2022-09-07T00:22:16.920Z,18.33
2022-09-07T00:22:48.534Z,18.25
2022-09-07T00:23:20.083Z,18.18
2022-09-07T00:23:52.217Z,18.10
2022-09-07T00:24:23.906Z,18.05
2022-09-07T00:24:55.456Z,18.02
2022-09-07T00:25:27.052Z,18.00
2022-09-07T00:26:05.225Z,18.08
2022-09-07T00:26:36.828Z,18.07
2022-09-07T00:27:08.436Z,18.16
2022-09-07T00:27:40.553Z,18.15
2022-09-07T00:28:12.200Z,18.18
2022-09-07T00:28:44.015Z,18.15
2022-09-07T00:29:15.554Z,18.21
2022-09-07T00:29:47.414Z,18.22
2022-09-07T00:30:19.040Z,18.32
2022-09-07T00:30:50.586Z,18.27
2022-09-07T00:31:23.602Z,18.18
2022-09-07T00:31:55.269Z,18.15
2022-09-07T00:32:26.872Z,18.13
2022-09-07T00:32:58.476Z,18.15
2022-09-07T00:33:30.811Z,18.09
2022-09-07T00:34:03.660Z,18.06
2022-09-07T00:34:35.213Z,18.06
2022-09-07T00:35:06.979Z,18.11
2022-09-07T00:35:42.125Z,18.13
2022-09-07T00:36:13.775Z,18.11
2022-09-07T00:36:45.758Z,18.14
2022-09-07T00:37:17.727Z,18.16
2022-09-07T00:37:49.301Z,18.20
2022-09-07T00:38:20.890Z,18.32
2022-09-07T00:38:52.714Z,18.39
2022-09-07T00:39:24.377Z,18.51
2022-09-07T00:39:56.045Z,18.49
2022-09-07T00:40:27.630Z,18.46
2022-09-07T00:40:59.365Z,18.46
2022-09-07T00:41:31.256Z,18.41
2022-09-07T00:42:03.735Z,18.43
2022-09-07T00:42:35.488Z,18.34
2022-09-07T00:43:07.416Z,18.26
2022-09-07T00:43:41.526Z,18.15
2022-09-07T00:44:43.955Z,18.06
2022-09-07T00:45:18.085Z,18.00
2022-09-07T00:45:49.616Z,18.01
2022-09-07T00:46:27.197Z,18.05
2022-09-07T00:46:59.003Z,18.11
2022-09-07T00:47:44.556Z,18.18
2022-09-07T00:48:18.480Z,18.33
2022-09-07T00:48:55.960Z,18.37
2022-09-07T00:49:27.512Z,18.45
2022-09-07T00:50:11.216Z,18.52
2022-09-07T00:50:47.311Z,18.53
2022-09-07T00:51:26.727Z,18.45
2022-09-07T00:52:00.650Z,18.40
2022-09-07T00:52:33.496Z,18.43
2022-09-07T00:53:09.286Z,18.46
2022-09-07T00:53:53.750Z,18.42
2022-09-07T00:54:30.365Z,18.43
2022-09-07T00:55:06.644Z,18.39
2022-09-07T00:55:41.146Z,18.36
2022-09-07T00:56:12.844Z,18.32
2022-09-07T00:56:45.432Z,18.33
2022-09-07T00:57:17.067Z,18.33
2022-09-07T00:57:52.149Z,18.30
2022-09-07T00:58:23.934Z,18.27
2022-09-07T00:58:55.761Z,18.37
2022-09-07T00:59:31.368Z,18.33
2022-09-07T01:00:04.848Z,18.38
2022-09-07T01:00:36.651Z,18.39
2022-09-07T01:01:08.461Z,18.39
2022-09-07T01:01:40.407Z,18.39
2022-09-07T01:02:13.209Z,18.38
2022-09-07T01:02:46.212Z,18.36
2022-09-07T01:03:23.441Z,18.32
2022-09-07T01:03:56.799Z,18.22
2022-09-07T01:04:30.116Z,18.30
2022-09-07T01:05:09.652Z,18.27
2022-09-07T01:05:48.178Z,18.31
2022-09-07T01:06:22.869Z,18.39
2022-09-07T01:06:55.298Z,18.47
2022-09-07T01:07:26.810Z,18.50
2022-09-07T01:07:58.689Z,18.52
2022-09-07T01:08:30.531Z,18.57
2022-09-07T01:09:22.913Z,18.61
2022-09-07T01:09:55.776Z,18.59
2022-09-07T01:10:33.440Z,18.39
2022-09-07T01:11:05.202Z,18.43
2022-09-07T01:11:37.545Z,18.34
2022-09-07T01:12:09.264Z,18.35
2022-09-07T01:12:40.836Z,18.26
2022-09-07T01:13:12.427Z,18.26
2022-09-07T01:13:45.303Z,18.28
2022-09-07T01:14:23.545Z,18.31
2022-09-07T01:14:55.953Z,18.25
2022-09-07T01:15:39.952Z,18.18
2022-09-07T01:16:38.936Z,18.18
2022-09-07T01:17:19.136Z,18.11
2022-09-07T01:17:50.604Z,18.09
2022-09-07T01:18:33.397Z,18.05
2022-09-07T01:19:13.669Z,18.00
2022-09-07T01:19:55.889Z,17.98
2022-09-07T01:20:50.433Z,17.96
2022-09-07T01:21:25.569Z,17.92
2022-09-07T01:22:18.360Z,17.95
2022-09-07T01:23:01.954Z,18.05
2022-09-07T01:23:45.604Z,18.03
2022-09-07T01:24:46.685Z,17.98
2022-09-07T01:25:39.956Z,18.06
2022-09-07T01:26:23.104Z,18.05
2022-09-07T01:27:25.287Z,18.03
2022-09-07T01:28:14.073Z,17.96
2022-09-07T01:28:49.595Z,17.96
2022-09-07T01:29:30.021Z,17.92
2022-09-07T01:30:03.275Z,17.89
2022-09-07T01:30:39.464Z,17.85
2022-09-07T01:31:25.772Z,17.82
2022-09-07T01:32:09.292Z,17.83
2022-09-07T01:32:59.002Z,17.82
2022-09-07T01:33:47.751Z,17.78
2022-09-07T01:34:25.403Z,17.77
2022-09-07T01:34:57.041Z,17.75
2022-09-07T01:35:55.634Z,17.76
2022-09-07T01:36:55.859Z,17.77
2022-09-07T01:37:32.252Z,17.79
2022-09-07T01:38:35.807Z,17.81
2022-09-07T01:39:08.229Z,17.83
2022-09-07T01:39:57.256Z,17.83
2022-09-07T01:40:42.393Z,17.90
2022-09-07T01:41:23.439Z,17.88
2022-09-07T01:41:58.827Z,17.90
2022-09-07T01:42:38.578Z,17.85
2022-09-07T01:43:13.589Z,17.93
2022-09-07T01:44:00.498Z,17.89
2022-09-07T01:44:39.806Z,17.92
2022-09-07T01:45:13.984Z,17.98
2022-09-07T01:45:45.847Z,18.04
2022-09-07T01:46:21.939Z,18.06
2022-09-07T01:47:07.698Z,18.11
2022-09-07T01:47:42.835Z,18.14
2022-09-07T01:48:16.668Z,18.00
2022-09-07T01:48:50.756Z,17.93
2022-09-07T01:49:29.599Z,17.95
2022-09-07T01:50:21.626Z,17.90
2022-09-07T01:50:59.287Z,17.89
2022-09-07T01:51:33.374Z,17.90
2022-09-07T01:52:18.762Z,17.91
2022-09-07T01:53:00.877Z,17.92
2022-09-07T01:53:39.804Z,17.87
2022-09-07T01:54:17.040Z,17.88
2022-09-07T01:54:52.681Z,17.86
2022-09-07T01:55:26.977Z,17.88
2022-09-07T01:56:05.627Z,17.88
2022-09-07T01:56:41.828Z,17.84
2022-09-07T01:57:19.022Z,17.80
2022-09-07T01:58:27.252Z,17.87
2022-09-07T01:59:04.995Z,17.84
2022-09-07T01:59:44.022Z,17.89
2022-09-07T02:00:18.718Z,17.93
2022-09-07T02:01:04.687Z,17.95
2022-09-07T02:01:52.623Z,18.03
2022-09-07T02:02:29.688Z,17.98
2022-09-07T02:03:41.549Z,17.97
2022-09-07T02:04:18.553Z,18.00
2022-09-07T02:05:02.108Z,17.97
2022-09-07T02:05:47.019Z,17.91
2022-09-07T02:06:27.231Z,17.83
2022-09-07T02:07:01.423Z,17.81
2022-09-07T02:07:43.209Z,17.79
2022-09-07T02:08:41.175Z,17.76
2022-09-07T02:09:58.320Z,17.73
2022-09-07T02:10:40.497Z,17.70
2022-09-07T02:11:19.597Z,17.68
2022-09-07T02:11:51.585Z,17.70
2022-09-07T02:12:48.199Z,17.81
2022-09-07T02:13:19.704Z,17.79
2022-09-07T02:14:04.060Z,17.77
2022-09-07T02:14:38.694Z,17.72
2022-09-07T02:15:16.342Z,17.61
2022-09-07T02:16:18.845Z,17.71
2022-09-07T02:17:00.784Z,17.64
2022-09-07T02:17:34.673Z,17.70
2022-09-07T02:18:07.794Z,17.71
2022-09-07T02:18:45.106Z,17.69
2022-09-07T02:19:19.240Z,17.70
2022-09-07T02:19:54.294Z,17.71
2022-09-07T02:20:31.027Z,17.67
2022-09-07T02:21:03.365Z,17.61
2022-09-07T02:21:38.541Z,17.60
2022-09-07T02:22:15.227Z,17.56
2022-09-07T02:22:49.907Z,17.49
2022-09-07T02:23:34.391Z,17.53
2022-09-07T02:24:12.900Z,17.49
2022-09-07T02:24:49.884Z,17.51
2022-09-07T02:25:23.931Z,17.53
2022-09-07T02:26:04.457Z,17.55
2022-09-07T02:26:39.410Z,17.54
2022-09-07T02:27:19.044Z,17.55
2022-09-07T02:27:55.434Z,17.59
2022-09-07T02:28:33.302Z,17.54
2022-09-07T02:29:05.376Z,17.55
2022-09-07T02:29:38.138Z,17.50
2022-09-07T02:30:10.502Z,17.52
2022-09-07T02:30:42.533Z,17.53
2022-09-07T02:31:14.507Z,17.57
2022-09-07T02:31:47.329Z,17.65
2022-09-07T02:32:19.104Z,17.65
2022-09-07T02:32:50.990Z,17.64
2022-09-07T02:33:23.324Z,17.64
2022-09-07T02:33:55.197Z,17.60
2022-09-07T02:34:26.896Z,17.59
2022-09-07T02:34:58.416Z,17.59
2022-09-07T02:35:30.092Z,17.63
2022-09-07T02:36:02.392Z,17.71
2022-09-07T02:36:39.463Z,17.69
2022-09-07T02:37:11.180Z,17.72
2022-09-07T02:37:43.767Z,17.78
2022-09-07T02:38:15.653Z,17.83
2022-09-07T02:38:47.167Z,17.82
2022-09-07T02:39:18.796Z,17.83
2022-09-07T02:39:50.674Z,17.88
2022-09-07T02:40:22.505Z,17.93
2022-09-07T02:40:57.529Z,17.90
2022-09-07T02:41:38.410Z,17.99
2022-09-07T02:42:15.761Z,17.94
2022-09-07T02:42:48.096Z,17.87
2022-09-07T02:43:20.818Z,17.88
2022-09-07T02:43:52.369Z,17.91
2022-09-07T02:44:27.652Z,17.84
2022-09-07T02:45:00.170Z,17.80
2022-09-07T02:45:58.258Z,17.79
2022-09-07T02:46:45.068Z,17.70
2022-09-07T02:47:36.995Z,17.66
2022-09-07T02:48:15.802Z,17.70
2022-09-07T02:48:51.336Z,17.69
2022-09-07T02:49:44.492Z,17.67
2022-09-07T02:50:29.366Z,17.61
2022-09-07T02:51:25.349Z,17.55
2022-09-07T02:52:20.461Z,17.51
2022-09-07T02:52:57.994Z,17.47
2022-09-07T02:53:36.459Z,17.53
2022-09-07T02:54:44.948Z,17.53
2022-09-07T02:56:24.702Z,17.48
2022-09-07T02:57:18.457Z,17.43
2022-09-07T02:58:05.031Z,17.39
2022-09-07T02:58:50.593Z,17.39
2022-09-07T02:59:45.148Z,17.34
2022-09-07T03:00:20.891Z,17.37
2022-09-07T03:01:14.430Z,17.42
2022-09-07T03:01:46.084Z,17.46
2022-09-07T03:02:30.998Z,17.49
2022-09-07T03:03:18.080Z,17.49
2022-09-07T03:04:10.993Z,17.49
2022-09-07T03:04:51.440Z,17.52
2022-09-07T03:05:46.051Z,17.48
2022-09-07T03:06:24.362Z,17.53
2022-09-07T03:07:03.389Z,17.56
2022-09-07T03:07:50.120Z,17.59
2022-09-07T03:08:25.334Z,17.59
2022-09-07T03:08:59.145Z,17.59
2022-09-07T03:09:35.363Z,17.58
2022-09-07T03:10:07.980Z,17.63
2022-09-07T03:10:40.660Z,17.64
2022-09-07T03:11:13.173Z,17.64
2022-09-07T03:11:44.780Z,17.66
2022-09-07T03:12:16.760Z,17.58
2022-09-07T03:12:49.634Z,17.52
2022-09-07T03:13:24.468Z,17.52
2022-09-07T03:14:19.627Z,17.56
2022-09-07T03:14:51.181Z,17.50
2022-09-07T03:15:25.603Z,17.51
2022-09-07T03:15:57.713Z,17.49
2022-09-07T03:16:29.311Z,17.48
2022-09-07T03:17:01.537Z,17.46
2022-09-07T03:17:33.061Z,17.42
2022-09-07T03:18:04.829Z,17.45
2022-09-07T03:18:36.353Z,17.44
2022-09-07T03:19:08.066Z,17.37
2022-09-07T03:19:39.741Z,17.46
2022-09-07T03:20:11.490Z,17.47
2022-09-07T03:20:43.137Z,17.47
2022-09-07T03:21:14.688Z,17.48
2022-09-07T03:21:46.430Z,17.47
2022-09-07T03:22:17.963Z,17.48
2022-09-07T03:22:51.209Z,17.50
2022-09-07T03:23:23.016Z,17.52
2022-09-07T03:23:55.078Z,17.45
2022-09-07T03:24:26.630Z,17.38
2022-09-07T03:24:58.175Z,17.47
2022-09-07T03:25:29.725Z,17.41
2022-09-07T03:26:01.302Z,17.38
2022-09-07T03:26:33.045Z,17.38
2022-09-07T03:27:04.665Z,17.41
2022-09-07T03:27:36.244Z,17.38
2022-09-07T03:28:07.804Z,17.38
2022-09-07T03:28:39.462Z,17.26
2022-09-07T03:29:11.092Z,17.26
2022-09-07T03:29:42.682Z,17.23
2022-09-07T03:30:14.537Z,17.21
2022-09-07T03:30:47.487Z,17.24
2022-09-07T03:31:19.988Z,17.30
2022-09-07T03:31:51.574Z,17.25
2022-09-07T03:32:23.122Z,17.29
2022-09-07T03:32:54.692Z,17.35
2022-09-07T03:33:26.283Z,17.24
2022-09-07T03:33:57.985Z,17.16
2022-09-07T03:34:29.545Z,17.10
2022-09-07T03:35:02.104Z,17.10
2022-09-07T03:35:33.632Z,17.04
2022-09-07T03:36:06.433Z,16.97
2022-09-07T03:36:38.240Z,16.95
2022-09-07T03:37:09.830Z,16.95
2022-09-07T03:37:41.779Z,16.85
2022-09-07T03:38:13.356Z,16.78
2022-09-07T03:38:45.291Z,16.76
2022-09-07T03:39:20.773Z,16.72
2022-09-07T03:39:52.631Z,16.69
2022-09-07T03:40:24.233Z,16.73
2022-09-07T03:41:03.393Z,16.75
2022-09-07T03:41:34.953Z,16.80
2022-09-07T03:42:06.636Z,16.82
2022-09-07T03:42:38.762Z,16.82
2022-09-07T03:43:10.316Z,16.85
2022-09-07T03:43:42.172Z,16.93
2022-09-07T03:44:13.707Z,16.86
2022-09-07T03:44:45.311Z,16.88
2022-09-07T03:45:17.007Z,16.95
2022-09-07T03:45:48.529Z,16.89
2022-09-07T03:46:20.801Z,16.93
2022-09-07T03:46:52.386Z,16.83
2022-09-07T03:47:23.992Z,16.78
2022-09-07T03:47:55.644Z,16.78
2022-09-07T03:48:30.202Z,16.80
2022-09-07T03:49:01.992Z,16.83
2022-09-07T03:49:33.498Z,16.81
2022-09-07T03:50:05.968Z,16.81
2022-09-07T03:50:37.489Z,16.78
2022-09-07T03:51:10.926Z,16.79
2022-09-07T03:51:42.473Z,16.80
2022-09-07T03:52:14.036Z,16.78
2022-09-07T03:52:45.566Z,16.80
2022-09-07T03:53:17.075Z,16.73
2022-09-07T03:53:48.745Z,16.73
2022-09-07T03:54:20.280Z,16.71
2022-09-07T03:54:51.968Z,16.69
2022-09-07T03:55:23.564Z,16.64
2022-09-07T03:56:03.155Z,16.63
2022-09-07T03:56:34.857Z,16.53
2022-09-07T03:57:06.450Z,16.50
2022-09-07T03:57:37.945Z,16.50
2022-09-07T03:58:09.467Z,16.54
2022-09-07T03:58:41.119Z,16.57
2022-09-07T03:59:12.635Z,16.58
2022-09-07T03:59:44.190Z,16.56
2022-09-07T04:00:16.183Z,16.60
2022-09-07T04:00:47.702Z,16.52
2022-09-07T04:01:22.578Z,16.52
2022-09-07T04:01:54.170Z,16.50
2022-09-07T04:02:26.144Z,16.51
2022-09-07T04:02:57.769Z,16.50
2022-09-07T04:03:29.300Z,16.55
2022-09-07T04:04:02.868Z,16.49
2022-09-07T04:04:34.504Z,16.46
2022-09-07T04:05:06.306Z,16.47
2022-09-07T04:05:37.834Z,16.53
2022-09-07T04:06:09.908Z,16.50
2022-09-07T04:06:41.564Z,16.44
2022-09-07T04:07:14.138Z,16.38
2022-09-07T04:07:48.207Z,16.34
2022-09-07T04:08:19.759Z,16.32
2022-09-07T04:08:51.452Z,16.33
2022-09-07T04:09:22.965Z,16.36
2022-09-07T04:09:54.510Z,16.47
2022-09-07T04:10:26.038Z,16.44
2022-09-07T04:10:59.169Z,16.48
2022-09-07T04:11:31.636Z,16.46
2022-09-07T04:12:03.619Z,16.46
2022-09-07T04:12:35.156Z,16.53
2022-09-07T04:13:08.029Z,16.54
2022-09-07T04:13:39.910Z,16.47
2022-09-07T04:14:11.690Z,16.49
2022-09-07T04:14:43.568Z,16.50
2022-09-07T04:15:15.236Z,16.45
2022-09-07T04:15:49.908Z,16.34
2022-09-07T04:16:25.744Z,16.34
2022-09-07T04:16:57.469Z,16.32
2022-09-07T04:17:29.055Z,16.32
2022-09-07T04:18:01.000Z,16.34
2022-09-07T04:18:32.562Z,16.42
2022-09-07T04:19:04.541Z,16.37
2022-09-07T04:19:36.057Z,16.38
2022-09-07T04:20:08.199Z,16.41
2022-09-07T04:20:39.912Z,16.42
2022-09-07T04:21:11.828Z,16.34
2022-09-07T04:21:44.603Z,16.35
2022-09-07T04:22:16.159Z,16.37
2022-09-07T04:22:53.656Z,16.38
2022-09-07T04:23:25.840Z,16.45
2022-09-07T04:23:58.059Z,16.47
2022-09-07T04:24:29.684Z,16.51
2022-09-07T04:25:01.212Z,16.48
2022-09-07T04:25:32.988Z,16.48
2022-09-07T04:26:04.608Z,16.49
2022-09-07T04:26:37.104Z,16.46
2022-09-07T04:27:08.686Z,16.49
2022-09-07T04:27:40.209Z,16.49
2022-09-07T04:28:11.762Z,16.49
2022-09-07T04:28:43.429Z,16.49
2022-09-07T04:29:14.996Z,16.50
2022-09-07T04:29:47.447Z,16.49
2022-09-07T04:30:18.978Z,16.46
2022-09-07T04:30:50.641Z,16.52
2022-09-07T04:31:23.495Z,16.50
2022-09-07T04:31:55.092Z,16.57
2022-09-07T04:32:26.701Z,16.60
2022-09-07T04:32:58.205Z,16.58
2022-09-07T04:33:33.236Z,16.57
2022-09-07T04:34:06.405Z,16.53
2022-09-07T04:34:38.004Z,16.54
2022-09-07T04:35:10.162Z,16.53
2022-09-07T04:35:42.531Z,16.61
2022-09-07T04:36:14.812Z,16.60
2022-09-07T04:36:46.404Z,16.59
2022-09-07T04:37:18.641Z,16.65
2022-09-07T04:37:50.260Z,16.63
2022-09-07T04:38:21.778Z,16.68
2022-09-07T04:39:00.769Z,16.63
2022-09-07T04:39:32.369Z,16.74
2022-09-07T04:40:05.495Z,16.70
2022-09-07T04:40:37.282Z,16.75
2022-09-07T04:41:18.818Z,16.76
2022-09-07T04:41:52.704Z,16.81
2022-09-07T04:42:24.235Z,16.83
2022-09-07T04:42:55.779Z,16.88
2022-09-07T04:43:28.709Z,16.85
2022-09-07T04:44:01.632Z,16.90
2022-09-07T04:44:33.212Z,16.92
2022-09-07T04:45:05.465Z,16.90
2022-09-07T04:45:37.611Z,16.85
2022-09-07T04:46:19.603Z,16.84
2022-09-07T04:46:51.247Z,16.85
2022-09-07T04:47:22.882Z,16.80
2022-09-07T04:47:54.401Z,16.81
2022-09-07T04:48:25.967Z,16.83
2022-09-07T04:48:59.116Z,16.84
2022-09-07T04:49:30.647Z,16.85
2022-09-07T04:50:02.566Z,16.85
2022-09-07T04:50:34.588Z,16.84
2022-09-07T04:51:07.956Z,16.80
2022-09-07T04:51:42.535Z,16.76
2022-09-07T04:52:14.156Z,16.77
2022-09-07T04:52:45.778Z,16.82
2022-09-07T04:53:17.694Z,16.76
2022-09-07T04:53:50.569Z,16.73
2022-09-07T04:54:22.367Z,16.79
2022-09-07T04:54:53.953Z,16.76
2022-09-07T04:55:25.853Z,16.72
2022-09-07T04:56:00.471Z,16.70
2022-09-07T04:56:32.649Z,16.68
2022-09-07T04:57:04.441Z,16.71
2022-09-07T04:57:36.032Z,16.73
2022-09-07T04:58:07.634Z,16.77
2022-09-07T04:58:39.176Z,16.79
2022-09-07T04:59:10.745Z,16.78
2022-09-07T04:59:42.373Z,16.76
2022-09-07T05:00:14.779Z,16.74
2022-09-07T05:00:46.435Z,16.67
2022-09-07T05:01:20.588Z,16.71
2022-09-07T05:01:52.225Z,16.74
2022-09-07T05:02:23.841Z,16.74
2022-09-07T05:02:55.467Z,16.73
2022-09-07T05:03:29.108Z,16.75
2022-09-07T05:04:01.538Z,16.79
2022-09-07T05:04:35.784Z,16.82
2022-09-07T05:05:07.971Z,16.81
2022-09-07T05:05:39.690Z,16.85
2022-09-07T05:06:11.634Z,16.88
2022-09-07T05:06:43.212Z,16.84
2022-09-07T05:07:14.759Z,16.84
2022-09-07T05:07:46.408Z,16.81
2022-09-07T05:08:18.049Z,16.83
2022-09-07T05:08:52.125Z,16.89
2022-09-07T05:09:23.631Z,16.90
2022-09-07T05:09:55.243Z,16.93
2022-09-07T05:10:26.744Z,16.96
2022-09-07T05:10:58.293Z,17.01
2022-09-07T05:11:30.258Z,17.02
2022-09-07T05:12:02.167Z,17.04
2022-09-07T05:12:33.691Z,17.06
2022-09-07T05:13:05.339Z,16.98
2022-09-07T05:13:37.202Z,16.97
2022-09-07T05:14:10.055Z,17.02
2022-09-07T05:14:41.725Z,16.99
2022-09-07T05:15:13.467Z,16.92
2022-09-07T05:15:45.158Z,16.91
2022-09-07T05:16:19.567Z,16.97
2022-09-07T05:16:51.306Z,16.98
2022-09-07T05:17:23.054Z,16.98
2022-09-07T05:17:54.603Z,16.97
2022-09-07T05:18:26.988Z,16.93
2022-09-07T05:19:01.418Z,16.93
2022-09-07T05:19:33.325Z,16.87
2022-09-07T05:20:05.663Z,16.89
2022-09-07T05:20:37.761Z,16.92
2022-09-07T05:21:20.520Z,16.98
2022-09-07T05:21:52.139Z,16.99
2022-09-07T05:22:25.210Z,16.93
2022-09-07T05:22:59.665Z,17.06
2022-09-07T05:23:31.386Z,17.04
2022-09-07T05:24:04.483Z,17.09
2022-09-07T05:24:36.860Z,17.04
2022-09-07T05:25:09.616Z,17.08
2022-09-07T05:25:45.497Z,17.08
2022-09-07T05:26:17.868Z,17.11
2022-09-07T05:26:49.447Z,17.11
2022-09-07T05:27:21.008Z,17.11
2022-09-07T05:27:52.668Z,17.18
2022-09-07T05:28:24.231Z,17.03
2022-09-07T05:30:04.322Z,17.04
2022-09-07T05:31:29.124Z,16.97
2022-09-07T05:32:00.910Z,17.05
2022-09-07T05:32:32.610Z,17.05
2022-09-07T05:33:04.286Z,17.02
2022-09-07T05:34:59.257Z,17.16
2022-09-07T05:35:31.479Z,17.15
2022-09-07T05:36:04.022Z,17.16
2022-09-07T05:36:36.008Z,17.20
2022-09-07T05:37:07.666Z,17.22
2022-09-07T05:37:39.347Z,17.26
2022-09-07T05:38:10.887Z,17.24
2022-09-07T05:38:42.944Z,17.27
2022-09-07T05:39:14.486Z,17.24
2022-09-07T05:39:46.137Z,17.17
2022-09-07T05:40:18.252Z,17.16
2022-09-07T05:40:49.913Z,17.17
2022-09-07T05:41:25.884Z,17.19
2022-09-07T05:41:57.428Z,17.23
2022-09-07T05:42:29.011Z,17.15
2022-09-07T05:43:00.534Z,17.12
2022-09-07T05:43:32.060Z,17.20
2022-09-07T05:44:56.105Z,17.26
2022-09-07T05:45:27.833Z,17.19
2022-09-07T05:45:59.479Z,17.22
2022-09-07T05:46:31.192Z,17.22
2022-09-07T05:47:02.743Z,17.18
2022-09-07T05:47:34.391Z,17.14
2022-09-07T05:48:05.961Z,17.22
2022-09-07T05:48:37.643Z,17.25
2022-09-07T05:49:09.649Z,17.19
2022-09-07T05:49:41.204Z,17.16
2022-09-07T05:50:12.724Z,17.20
2022-09-07T05:50:51.722Z,17.17
2022-09-07T05:51:23.360Z,17.16
2022-09-07T05:51:54.944Z,17.22
2022-09-07T05:52:26.475Z,17.18
2022-09-07T05:52:59.074Z,17.17
2022-09-07T05:53:30.867Z,17.19
2022-09-07T05:54:02.384Z,17.18
2022-09-07T05:54:33.993Z,17.17
2022-09-07T05:55:28.273Z,17.14
2022-09-07T05:56:05.147Z,17.18
2022-09-07T05:56:38.659Z,17.19
2022-09-07T05:57:11.751Z,17.19
2022-09-07T05:57:43.354Z,17.24
2022-09-07T05:58:14.902Z,17.23
2022-09-07T05:58:49.268Z,17.15
2022-09-07T05:59:20.790Z,17.16
2022-09-07T05:59:52.320Z,17.18
2022-09-07T06:00:23.834Z,17.16
2022-09-07T06:01:05.680Z,17.16
2022-09-07T06:01:37.571Z,17.16
2022-09-07T06:02:19.052Z,17.14
2022-09-07T06:02:50.794Z,17.15
2022-09-07T06:03:22.521Z,17.24
2022-09-07T06:03:54.108Z,17.21
2022-09-07T06:04:25.862Z,17.25
2022-09-07T06:04:57.394Z,17.26
2022-09-07T06:05:28.933Z,17.27
2022-09-07T06:06:11.650Z,17.36
2022-09-07T06:06:47.817Z,17.39
2022-09-07T06:07:30.725Z,17.33
2022-09-07T06:08:02.790Z,17.37
2022-09-07T06:08:35.922Z,17.45
2022-09-07T06:09:08.000Z,17.46
2022-09-07T06:10:44.201Z,17.48
2022-09-07T06:11:18.605Z,17.51
2022-09-07T06:11:50.437Z,17.43
2022-09-07T06:12:21.974Z,17.35
2022-09-07T06:12:53.674Z,17.40
2022-09-07T06:13:25.625Z,17.46
2022-09-07T06:13:57.360Z,17.49
2022-09-07T06:14:28.877Z,17.48
2022-09-07T06:15:01.587Z,17.49
2022-09-07T06:15:34.064Z,17.49
2022-09-07T06:16:07.507Z,17.48
2022-09-07T06:16:39.196Z,17.53
2022-09-07T06:17:10.771Z,17.55
2022-09-07T06:17:42.272Z,17.48
2022-09-07T06:18:13.839Z,17.50
2022-09-07T06:18:48.356Z,17.55
2022-09-07T06:19:19.887Z,17.58
2022-09-07T06:19:51.587Z,17.47
2022-09-07T06:20:23.085Z,17.47
2022-09-07T06:20:54.646Z,17.40
2022-09-07T06:21:26.165Z,17.40
2022-09-07T06:21:57.787Z,17.44
2022-09-07T06:22:31.229Z,17.49
2022-09-07T06:23:03.043Z,17.50
2022-09-07T06:23:35.621Z,17.54
2022-09-07T06:24:07.481Z,17.59
2022-09-07T06:24:39.007Z,17.63
2022-09-07T06:25:10.637Z,17.57
2022-09-07T06:25:48.699Z,17.52
2022-09-07T06:26:20.388Z,17.50
2022-09-07T06:26:52.252Z,17.58
2022-09-07T06:27:23.918Z,17.51
2022-09-07T06:27:55.482Z,17.41
2022-09-07T06:28:37.680Z,17.47
2022-09-07T06:29:10.105Z,17.57
2022-09-07T06:29:41.661Z,17.58
2022-09-07T06:30:13.403Z,17.36
2022-09-07T06:30:45.001Z,17.35
2022-09-07T06:31:18.630Z,17.43
2022-09-07T06:33:21.979Z,17.48
2022-09-07T06:33:54.901Z,17.59
2022-09-07T06:34:26.464Z,17.67
2022-09-07T06:34:57.980Z,17.72
2022-09-07T06:35:29.492Z,17.74
2022-09-07T06:36:03.670Z,17.88
2022-09-07T06:36:35.202Z,17.80
2022-09-07T06:37:06.763Z,17.91
2022-09-07T06:37:38.724Z,18.10
2022-09-07T06:38:10.509Z,18.12
2022-09-07T06:38:42.814Z,18.14
2022-09-07T06:39:14.698Z,18.09
2022-09-07T06:39:46.337Z,18.15
2022-09-07T06:40:18.022Z,18.36
2022-09-07T06:40:49.600Z,18.43
2022-09-07T06:42:14.063Z,18.62
2022-09-07T06:42:48.620Z,18.83
2022-09-07T06:43:21.064Z,18.94
2022-09-07T06:43:53.965Z,19.13
2022-09-07T06:44:25.573Z,19.24
2022-09-07T06:44:57.490Z,19.40
2022-09-07T06:45:30.337Z,19.62
2022-09-07T06:47:32.941Z,19.91
2022-09-07T06:48:04.628Z,20.06
2022-09-07T06:48:36.548Z,20.12
2022-09-07T06:49:08.149Z,20.30
2022-09-07T06:49:39.694Z,20.27
2022-09-07T06:50:12.432Z,20.46
2022-09-07T06:50:43.973Z,20.51
2022-09-07T06:51:20.950Z,20.65
2022-09-07T06:51:52.610Z,20.70
2022-09-07T06:52:24.302Z,20.72
2022-09-07T06:53:48.830Z,20.43
2022-09-07T06:55:12.077Z,20.44
2022-09-07T06:55:44.777Z,20.55
2022-09-07T06:56:18.030Z,20.56
2022-09-07T06:56:49.633Z,20.54
2022-09-07T06:57:21.249Z,20.67
2022-09-07T06:57:53.407Z,20.81
2022-09-07T06:58:25.881Z,20.82
2022-09-07T06:58:57.915Z,20.89
2022-09-07T06:59:29.492Z,20.87
2022-09-07T07:00:01.043Z,20.71
2022-09-07T07:00:32.608Z,20.83
2022-09-07T07:01:10.597Z,20.84
2022-09-07T07:01:42.212Z,20.94
2022-09-07T07:02:15.001Z,20.96
2022-09-07T07:02:46.567Z,20.89
2022-09-07T07:03:18.478Z,20.96
2022-09-07T07:03:51.244Z,21.05
2022-09-07T07:04:23.092Z,21.02
2022-09-07T07:04:54.728Z,20.93
2022-09-07T07:05:26.267Z,21.11
2022-09-07T07:05:57.773Z,21.05
2022-09-07T07:06:39.008Z,21.16
2022-09-07T07:07:12.415Z,21.05
2022-09-07T07:07:43.975Z,21.06
2022-09-07T07:08:15.740Z,21.19
2022-09-07T07:08:47.759Z,21.26
2022-09-07T07:09:19.450Z,21.32
2022-09-07T07:09:51.000Z,21.32
2022-09-07T07:10:24.983Z,20.95
2022-09-07T07:11:01.212Z,21.24
2022-09-07T07:11:32.970Z,21.25
2022-09-07T07:12:04.560Z,21.26
2022-09-07T07:13:06.859Z,21.28
2022-09-07T07:13:39.585Z,21.45
2022-09-07T07:14:15.328Z,21.48
2022-09-07T07:14:46.881Z,21.68
2022-09-07T07:15:18.795Z,21.61
2022-09-07T07:15:51.468Z,21.65
2022-09-07T07:16:23.234Z,21.49
2022-09-07T07:16:54.812Z,21.74
2022-09-07T07:17:27.265Z,21.79
2022-09-07T07:18:05.459Z,21.77
2022-09-07T07:18:45.818Z,21.37
2022-09-07T07:19:17.363Z,21.77
2022-09-07T07:19:48.899Z,21.81
2022-09-07T07:20:21.204Z,21.89
2022-09-07T07:20:53.006Z,21.96
2022-09-07T07:21:24.797Z,22.12
2022-09-07T07:22:52.223Z,21.71
2022-09-07T07:23:24.009Z,21.49
2022-09-07T07:23:55.568Z,21.66
2022-09-07T07:24:27.121Z,21.73
2022-09-07T07:24:59.319Z,21.84
2022-09-07T07:25:31.332Z,21.94
2022-09-07T07:26:17.112Z,22.05
2022-09-07T07:26:48.743Z,22.68
2022-09-07T07:27:22.013Z,22.99
2022-09-07T07:27:53.904Z,23.07
2022-09-07T07:29:19.433Z,23.58
2022-09-07T07:29:52.437Z,23.92
2022-09-07T07:30:23.968Z,23.92
2022-09-07T07:30:59.670Z,24.05
2022-09-07T07:31:33.204Z,23.99
2022-09-07T07:32:05.331Z,23.49
2022-09-07T07:32:37.906Z,23.24
2022-09-07T07:33:10.102Z,23.07
2022-09-07T07:33:41.765Z,23.03
2022-09-07T07:34:13.389Z,22.90
2022-09-07T07:34:45.035Z,22.78
2022-09-07T07:35:16.685Z,22.39
2022-09-07T07:35:48.208Z,22.04
2022-09-07T07:36:24.292Z,22.01
2022-09-07T07:36:55.819Z,21.79
2022-09-07T07:37:28.344Z,21.71
2022-09-07T07:39:01.453Z,21.18
2022-09-07T07:40:30.357Z,21.10
2022-09-07T07:41:56.497Z,20.99